createdAt,value
2022-11-22T00:00:28.134Z,35.90
2022-11-22T00:03:15.747Z,35.30
2022-11-22T00:05:43.202Z,34.60
2022-11-22T00:08:10.664Z,32.90
2022-11-22T00:10:38.318Z,34.10
2022-11-22T00:13:06.081Z,33.30
2022-11-22T00:15:33.946Z,34.60
2022-11-22T00:18:02.019Z,32.70
2022-11-22T00:20:29.890Z,32.00
2022-11-22T00:22:57.654Z,33.60
2022-11-22T00:25:25.375Z,31.90
2022-11-22T00:27:52.576Z,32.30
2022-11-22T00:30:20.355Z,32.00
2022-11-22T00:32:47.790Z,33.80
2022-11-22T00:35:15.494Z,32.20
2022-11-22T00:37:42.732Z,33.90
2022-11-22T00:40:11.964Z,32.30
2022-11-22T00:42:39.165Z,32.70
2022-11-22T00:45:07.319Z,34.30
2022-11-22T00:47:35.296Z,34.10
2022-11-22T00:50:02.452Z,33.40
2022-11-22T00:52:29.598Z,34.00
2022-11-22T00:54:57.079Z,33.90
2022-11-22T00:57:24.410Z,34.50
2022-11-22T00:59:52.021Z,33.70
2022-11-22T01:02:19.779Z,33.40
2022-11-22T01:04:47.500Z,35.00
2022-11-22T01:07:15.205Z,33.90
2022-11-22T01:09:42.557Z,34.30
2022-11-22T01:12:10.248Z,32.90
2022-11-22T01:14:37.637Z,35.10
2022-11-22T01:17:04.995Z,33.50
2022-11-22T01:19:32.647Z,34.30
2022-11-22T01:22:00.017Z,35.30
2022-11-22T01:24:27.890Z,34.70
2022-11-22T01:26:55.142Z,33.60
2022-11-22T01:29:22.234Z,34.80
2022-11-22T01:31:49.656Z,34.00
2022-11-22T01:34:17.197Z,32.80
2022-11-22T01:36:44.420Z,34.90
2022-11-22T01:39:11.939Z,36.70
2022-11-22T01:41:39.058Z,34.90
2022-11-22T01:44:20.826Z,34.20
2022-11-22T01:46:49.940Z,33.90
2022-11-22T01:49:25.038Z,34.50
2022-11-22T01:51:56.735Z,34.80
2022-11-22T01:54:27.265Z,33.90
2022-11-22T01:56:59.337Z,33.90
2022-11-22T01:59:30.278Z,35.30
2022-11-22T02:01:58.341Z,34.40
2022-11-22T02:04:29.628Z,34.90
2022-11-22T02:07:03.069Z,36.10
2022-11-22T02:09:31.431Z,36.60
2022-11-22T02:12:03.541Z,35.50
2022-11-22T02:14:32.949Z,36.20
2022-11-22T02:17:00.289Z,36.50
2022-11-22T02:19:40.860Z,36.10
2022-11-22T02:22:19.881Z,36.30
2022-11-22T02:24:54.857Z,36.90
2022-11-22T02:27:22.613Z,34.70
2022-11-22T02:29:50.010Z,35.50
2022-11-22T02:32:17.390Z,38.10
2022-11-22T02:34:51.403Z,36.20
2022-11-22T02:37:24.083Z,34.50
2022-11-22T02:39:57.534Z,37.50
2022-11-22T02:42:26.064Z,36.50
2022-11-22T02:44:53.679Z,38.20
2022-11-22T02:47:21.080Z,35.50
2022-11-22T02:49:48.539Z,36.80
2022-11-22T02:52:19.525Z,37.20
2022-11-22T02:54:47.241Z,34.90
2022-11-22T02:57:15.313Z,38.10
2022-11-22T02:59:42.770Z,36.70
2022-11-22T03:02:10.024Z,39.00
2022-11-22T03:04:37.623Z,37.30
2022-11-22T03:07:05.304Z,37.80
2022-11-22T03:09:33.678Z,37.30
2022-11-22T03:12:01.695Z,36.70
2022-11-22T03:14:29.283Z,37.90
2022-11-22T03:16:56.610Z,37.10
2022-11-22T03:19:24.074Z,37.30
2022-11-22T03:21:51.221Z,37.20
2022-11-22T03:24:20.252Z,35.50
2022-11-22T03:26:51.768Z,37.70
2022-11-22T03:29:19.552Z,37.60
2022-11-22T03:31:47.195Z,36.70
2022-11-22T03:34:16.403Z,36.60
2022-11-22T03:36:43.644Z,35.50
2022-11-22T03:39:11.240Z,38.60
2022-11-22T03:41:38.680Z,38.10
2022-11-22T03:44:07.184Z,39.70
2022-11-22T03:46:34.308Z,41.10
2022-11-22T03:49:01.895Z,40.40
2022-11-22T03:51:29.633Z,38.60
2022-11-22T03:53:56.918Z,38.40
2022-11-22T03:56:24.394Z,38.20
2022-11-22T03:58:51.988Z,36.90
2022-11-22T04:01:19.317Z,36.80
2022-11-22T04:03:47.012Z,38.10
2022-11-22T04:06:14.259Z,37.70
2022-11-22T04:08:41.540Z,39.50
2022-11-22T04:11:08.969Z,39.40
2022-11-22T04:13:54.247Z,38.90
2022-11-22T04:16:22.008Z,37.40
2022-11-22T04:18:49.772Z,37.10
2022-11-22T04:21:35.672Z,36.80
2022-11-22T04:24:20.810Z,35.10
2022-11-22T04:26:49.430Z,35.00
2022-11-22T04:29:16.946Z,36.20
2022-11-22T04:32:13.416Z,38.40
2022-11-22T04:34:41.349Z,36.80
2022-11-22T04:37:08.850Z,36.50
2022-11-22T04:39:36.505Z,35.60
2022-11-22T04:42:20.554Z,34.20
2022-11-22T04:44:48.526Z,35.90
2022-11-22T04:47:34.208Z,37.40
2022-11-22T04:50:01.694Z,36.20
2022-11-22T04:52:46.234Z,38.90
2022-11-22T04:55:13.609Z,38.10
2022-11-22T04:57:40.931Z,35.60
2022-11-22T05:00:10.256Z,38.80
2022-11-22T05:02:37.586Z,42.70
2022-11-22T05:05:05.497Z,39.00
2022-11-22T05:07:34.494Z,41.60
2022-11-22T05:10:01.905Z,40.70
2022-11-22T05:12:29.468Z,42.20
2022-11-22T05:14:57.026Z,40.80
2022-11-22T05:17:24.788Z,39.80
2022-11-22T05:19:51.941Z,39.60
2022-11-22T05:22:39.675Z,41.90
2022-11-22T05:25:07.831Z,40.70
2022-11-22T05:27:34.997Z,41.00
2022-11-22T05:30:02.658Z,39.80
2022-11-22T05:32:32.726Z,39.30
2022-11-22T05:35:00.034Z,41.80
2022-11-22T05:37:27.789Z,39.50
2022-11-22T05:39:55.044Z,37.70
2022-11-22T05:42:22.814Z,38.40
2022-11-22T05:44:50.474Z,42.10
2022-11-22T05:47:17.626Z,40.60
2022-11-22T05:49:46.259Z,43.30
2022-11-22T05:52:13.872Z,42.90
2022-11-22T05:54:41.330Z,39.40
2022-11-22T05:57:08.846Z,39.50
2022-11-22T05:59:41.092Z,39.40
2022-11-22T06:02:11.544Z,39.90
2022-11-22T06:04:39.466Z,38.70
2022-11-22T06:07:10.264Z,38.80
2022-11-22T06:09:38.055Z,39.70
2022-11-22T06:12:05.587Z,41.90
2022-11-22T06:14:32.840Z,39.90
2022-11-22T06:17:00.161Z,38.10
2022-11-22T06:19:27.734Z,40.90
2022-11-22T06:21:55.141Z,40.10
2022-11-22T06:24:22.498Z,39.80
2022-11-22T06:26:50.071Z,41.90
2022-11-22T06:29:17.449Z,41.10
2022-11-22T06:31:44.560Z,41.50
2022-11-22T06:34:14.629Z,43.10
2022-11-22T06:36:41.949Z,40.70
2022-11-22T06:39:09.183Z,42.40
2022-11-22T06:41:38.724Z,39.60
2022-11-22T06:44:09.892Z,41.20
2022-11-22T06:46:37.917Z,41.00
2022-11-22T06:49:05.793Z,39.60
2022-11-22T06:51:34.047Z,38.00
2022-11-22T06:54:01.876Z,39.10
2022-11-22T06:56:31.139Z,39.60
2022-11-22T06:58:59.540Z,42.50
2022-11-22T07:01:29.387Z,37.10
2022-11-22T07:03:59.359Z,37.80
2022-11-22T07:06:27.861Z,41.10
2022-11-22T07:08:55.467Z,40.20
2022-11-22T07:11:25.204Z,38.90
2022-11-22T07:13:53.553Z,41.70
2022-11-22T07:16:22.599Z,42.60
2022-11-22T07:18:50.960Z,41.70
2022-11-22T07:21:20.036Z,41.10
2022-11-22T07:23:49.117Z,42.10
2022-11-22T07:26:18.157Z,42.90
2022-11-22T07:28:46.208Z,44.00
2022-11-22T07:31:15.046Z,46.80
2022-11-22T07:33:44.262Z,45.90
2022-11-22T07:36:15.255Z,47.20
2022-11-22T07:38:42.656Z,45.70
2022-11-22T07:41:11.519Z,45.40
2022-11-22T07:43:39.223Z,45.20
2022-11-22T07:46:08.896Z,43.80
2022-11-22T07:48:36.473Z,46.00
2022-11-22T07:51:08.527Z,45.50
2022-11-22T07:53:36.168Z,45.30
2022-11-22T07:56:06.153Z,43.50
2022-11-22T07:58:33.776Z,44.50
2022-11-22T08:01:05.177Z,45.60
2022-11-22T08:03:32.587Z,44.80
2022-11-22T08:06:04.026Z,45.70
2022-11-22T08:08:31.649Z,44.70
2022-11-22T08:10:59.455Z,46.40
2022-11-22T08:13:27.048Z,46.10
2022-11-22T08:15:56.709Z,45.50
2022-11-22T08:18:25.956Z,46.20
2022-11-22T08:21:02.726Z,45.30
2022-11-22T08:23:30.213Z,43.80
2022-11-22T08:25:58.574Z,42.80
2022-11-22T08:28:25.918Z,45.50
2022-11-22T08:30:53.559Z,44.10
2022-11-22T08:33:21.127Z,45.60
2022-11-22T08:35:52.489Z,48.10
2022-11-22T08:38:20.050Z,44.90
2022-11-22T08:40:47.508Z,44.70
2022-11-22T08:43:14.654Z,45.40
2022-11-22T08:45:42.962Z,43.00
2022-11-22T08:48:10.943Z,44.70
2022-11-22T08:50:38.094Z,43.10
2022-11-22T08:53:05.511Z,45.60
2022-11-22T08:55:33.288Z,45.40
2022-11-22T08:58:04.803Z,41.20
2022-11-22T09:00:33.692Z,43.50
2022-11-22T09:03:01.485Z,44.80
2022-11-22T09:05:29.466Z,46.00
2022-11-22T09:10:45.464Z,45.20
2022-11-22T09:13:12.851Z,43.10
2022-11-22T09:15:40.896Z,44.50
2022-11-22T09:18:08.193Z,41.70
2022-11-22T09:20:36.339Z,40.60
2022-11-22T09:23:05.109Z,45.30
2022-11-22T09:25:32.769Z,42.80
2022-11-22T09:28:03.542Z,42.40
2022-11-22T09:30:31.784Z,40.60
2022-11-22T09:32:59.439Z,40.90
2022-11-22T09:35:27.142Z,43.70
2022-11-22T09:37:54.459Z,41.80
2022-11-22T09:40:21.918Z,42.40
2022-11-22T09:43:05.654Z,39.60
2022-11-22T09:45:43.455Z,40.20
2022-11-22T09:48:23.226Z,41.30
2022-11-22T09:50:59.871Z,40.60
2022-11-22T09:55:58.634Z,39.60
2022-11-22T09:58:33.619Z,38.40
2022-11-22T10:01:10.074Z,39.50
2022-11-22T10:03:47.225Z,38.10
2022-11-22T10:06:21.176Z,40.00
2022-11-22T10:08:57.796Z,40.60
2022-11-22T10:11:36.880Z,39.50
2022-11-22T10:14:09.566Z,39.80
2022-11-22T10:16:44.180Z,41.50
2022-11-22T10:19:16.897Z,38.00
2022-11-22T10:21:47.213Z,38.90
2022-11-22T10:24:20.194Z,39.90
2022-11-22T10:26:48.083Z,38.10
2022-11-22T10:29:29.452Z,39.50
2022-11-22T10:32:05.248Z,39.70
2022-11-22T10:34:50.894Z,40.30
2022-11-22T10:37:26.303Z,39.00
2022-11-22T10:40:04.151Z,40.70
2022-11-22T10:42:58.732Z,37.70
2022-11-22T10:45:32.810Z,36.90
2022-11-22T10:48:11.327Z,37.20
2022-11-22T10:50:50.606Z,36.40
2022-11-22T10:53:26.073Z,35.70
2022-11-22T10:56:00.870Z,35.00
2022-11-22T10:58:39.562Z,34.70
2022-11-22T11:01:17.721Z,34.00
2022-11-22T11:03:49.633Z,31.50
2022-11-22T11:06:37.522Z,31.80
2022-11-22T11:10:08.904Z,30.20
2022-11-22T11:12:11.084Z,32.50
2022-11-22T11:14:42.436Z,33.10
2022-11-22T11:17:15.421Z,33.90
2022-11-22T11:19:46.377Z,32.80
2022-11-22T11:22:44.266Z,32.50
2022-11-22T11:25:30.252Z,31.60
2022-11-22T11:28:01.139Z,29.10
2022-11-22T11:30:28.242Z,30.70
2022-11-22T11:32:57.349Z,30.00
2022-11-22T11:35:28.122Z,30.00
2022-11-22T11:37:56.175Z,30.20
2022-11-22T11:40:34.164Z,29.50
2022-11-22T11:43:20.861Z,29.60
2022-11-22T11:45:49.429Z,30.10
2022-11-22T11:48:37.708Z,30.90
2022-11-22T11:51:18.665Z,29.60
2022-11-22T11:53:55.062Z,29.90
2022-11-22T11:56:28.759Z,30.00
2022-11-22T11:58:57.279Z,27.30
2022-11-22T12:01:26.946Z,25.90
2022-11-22T12:04:02.861Z,28.50
2022-11-22T12:06:34.246Z,29.90
2022-11-22T12:09:08.892Z,31.00
2022-11-22T12:11:44.265Z,30.10
2022-11-22T12:14:20.595Z,30.20
2022-11-22T12:16:53.428Z,30.50
